Time;durP1;ratioP1;P1;durP2;ratioP2;P2;SDS_P1;SDS_P2;PMS_P1;PMS_P2;Temp;Humidity;BMP_temperature;BMP_pressure;BME280_temperature;BME280_humidity;BME280_pressure;Samples;Min_cycle;Max_cycle;Signal;HPM_P1;HPM_P2
2024/01/31 00:02:04;;;;;;;1.55;1.00;;;5.60;99.90;;;;;;5093726;28;20036;-62
2024/01/31 00:04:29;;;;;;;0.98;0.82;;;5.60;99.90;;;;;;5093689;28;20040;-63
2024/01/31 00:06:56;;;;;;;1.20;0.82;;;5.30;99.90;;;;;;5093744;28;20044;-63
2024/01/31 00:09:21;;;;;;;1.23;0.95;;;5.30;99.90;;;;;;5093294;28;20054;-63
2024/01/31 00:11:47;;;;;;;1.15;0.70;;;5.70;99.90;;;;;;5093466;28;20032;-63
2024/01/31 00:14:16;;;;;;;1.13;0.70;;;5.30;99.90;;;;;;5093594;28;20043;-63
2024/01/31 00:16:43;;;;;;;1.27;1.02;;;5.30;99.90;;;;;;5093456;28;20157;-63
2024/01/31 00:19:08;;;;;;;0.60;0.60;;;5.30;99.90;;;;;;5093159;28;20032;-63
2024/01/31 00:21:34;;;;;;;1.73;0.90;;;5.30;99.90;;;;;;5093431;28;20518;-63
2024/01/31 00:23:59;;;;;;;1.60;0.70;;;5.30;99.90;;;;;;5093331;28;20032;-63
2024/01/31 00:26:25;;;;;;;1.45;0.70;;;5.30;99.90;;;;;;5093296;28;20036;-63
2024/01/31 00:28:51;;;;;;;2.33;0.93;;;5.30;99.90;;;;;;5093280;28;20040;-63
2024/01/31 00:31:17;;;;;;;2.60;0.90;;;5.30;99.90;;;;;;5093084;28;20076;-63
2024/01/31 00:33:43;;;;;;;0.98;0.80;;;5.30;99.90;;;;;;5071071;28;20067;-63
2024/01/31 00:36:15;;;;;;;4.22;1.05;;;5.30;99.90;;;;;;5072933;28;20048;-63
2024/01/31 00:38:41;;;;;;;0.80;0.80;;;5.40;99.90;;;;;;5072562;28;20119;-63
2024/01/31 00:41:07;;;;;;;0.70;0.70;;;6.20;99.90;;;;;;5072790;28;20040;-63
2024/01/31 00:43:33;;;;;;;2.00;0.77;;;5.60;99.90;;;;;;5071306;28;20039;-63
2024/01/31 00:46:02;;;;;;;1.38;0.80;;;6.00;99.90;;;;;;5072761;28;20119;-63
2024/01/31 00:48:27;;;;;;;1.98;1.13;;;5.30;99.90;;;;;;5070271;28;20502;-63
2024/01/31 00:50:53;;;;;;;1.25;0.93;;;5.70;99.90;;;;;;5072560;28;20080;-63
2024/01/31 00:53:18;;;;;;;1.00;0.70;;;5.30;99.90;;;;;;5072622;28;20084;-62
2024/01/31 00:55:44;;;;;;;1.10;0.80;;;6.20;99.90;;;;;;5072631;28;20508;-63
2024/01/31 00:58:10;;;;;;;1.30;0.80;;;5.30;99.90;;;;;;5071334;28;20559;-63
2024/01/31 01:00:35;;;;;;;1.77;0.95;;;5.30;99.90;;;;;;5072516;28;20044;-63
2024/01/31 01:03:01;;;;;;;1.75;1.00;;;5.30;99.90;;;;;;5071217;28;20044;-69
2024/01/31 01:05:26;;;;;;;1.17;0.80;;;5.30;99.90;;;;;;5072473;28;20036;-71
2024/01/31 01:07:52;;;;;;;1.98;1.00;;;5.30;99.90;;;;;;5072445;28;20032;-72
2024/01/31 01:10:18;;;;;;;0.90;0.80;;;5.30;99.90;;;;;;5072042;28;20048;-73
2024/01/31 01:12:43;;;;;;;1.85;0.90;;;5.30;99.90;;;;;;5072121;28;20141;-73
2024/01/31 01:15:10;;;;;;;0.82;0.82;;;5.80;99.90;;;;;;5072337;28;20047;-71
2024/01/31 01:17:36;;;;;;;3.00;1.10;;;5.30;99.90;;;;;;5072365;28;20116;-72
2024/01/31 01:20:02;;;;;;;1.55;1.10;;;6.00;99.90;;;;;;5072310;28;20035;-73
2024/01/31 01:22:28;;;;;;;0.70;0.70;;;5.30;99.90;;;;;;5072305;28;20025;-72
2024/01/31 01:24:53;;;;;;;0.80;0.80;;;5.30;99.90;;;;;;5072312;28;20079;-72
2024/01/31 01:27:19;;;;;;;1.75;0.77;;;5.30;99.90;;;;;;5072181;28;20143;-61
2024/01/31 01:29:45;;;;;;;1.05;0.70;;;5.30;99.90;;;;;;5072118;28;20499;-61
2024/01/31 01:32:17;;;;;;;0.82;0.70;;;5.30;99.90;;;;;;5070473;28;20496;-61
2024/01/31 01:34:43;;;;;;;0.73;0.73;;;5.30;99.90;;;;;;5072141;28;20033;-61
2024/01/31 01:37:08;;;;;;;0.90;0.80;;;5.30;99.90;;;;;;5072130;28;20059;-61
2024/01/31 01:39:35;;;;;;;1.10;1.00;;;5.30;99.90;;;;;;5072071;28;20066;-62
2024/01/31 01:42:01;;;;;;;0.75;0.75;;;5.30;99.90;;;;;;5071765;28;20055;-61
2024/01/31 01:44:32;;;;;;;1.40;1.02;;;5.90;99.90;;;;;;5072148;28;20048;-63
2024/01/31 01:46:58;;;;;;;1.50;0.85;;;6.00;99.90;;;;;;5072061;28;20043;-63
2024/01/31 01:49:24;;;;;;;0.65;0.60;;;5.30;99.90;;;;;;5071982;28;20100;-63
2024/01/31 01:51:51;;;;;;;1.20;0.95;;;5.30;99.90;;;;;;5071911;28;20068;-63
2024/01/31 01:54:17;;;;;;;1.80;0.75;;;5.30;99.90;;;;;;5071628;28;20099;-63
2024/01/31 01:56:45;;;;;;;1.73;1.00;;;5.30;99.90;;;;;;5071957;28;20079;-63
2024/01/31 01:59:14;;;;;;;1.98;0.70;;;5.30;99.90;;;;;;5073263;28;20037;-63
2024/01/31 02:01:41;;;;;;;1.77;0.73;;;5.60;99.90;;;;;;5074341;28;20102;-63
2024/01/31 02:04:08;;;;;;;1.90;0.70;;;5.30;99.90;;;;;;5075815;28;20499;-63
2024/01/31 02:06:34;;;;;;;1.73;0.80;;;5.30;99.90;;;;;;5075854;28;20040;-63
2024/01/31 02:09:00;;;;;;;1.02;0.80;;;5.30;99.90;;;;;;5075402;28;20074;-63
2024/01/31 02:11:26;;;;;;;0.73;0.73;;;5.60;99.90;;;;;;5075444;28;20041;-63
2024/01/31 02:13:52;;;;;;;0.60;0.60;;;5.50;99.90;;;;;;5075714;28;20107;-72
2024/01/31 02:16:17;;;;;;;1.95;0.98;;;5.40;99.90;;;;;;5074028;28;20032;-72
2024/01/31 02:18:44;;;;;;;1.67;0.93;;;5.60;99.90;;;;;;5075586;28;20365;-71
2024/01/31 02:21:09;;;;;;;0.57;0.55;;;5.30;99.90;;;;;;5075536;28;20048;-72
2024/01/31 02:23:35;;;;;;;1.25;0.80;;;5.30;99.90;;;;;;5075482;28;20046;-72
2024/01/31 02:26:00;;;;;;;2.25;1.20;;;5.30;99.90;;;;;;5075327;28;20039;-72
2024/01/31 02:28:26;;;;;;;0.65;0.60;;;5.20;99.90;;;;;;5075378;28;20042;-73
2024/01/31 02:30:53;;;;;;;1.25;1.05;;;5.20;99.90;;;;;;5075199;28;20110;-72
2024/01/31 02:33:26;;;;;;;2.00;0.70;;;5.10;99.90;;;;;;5073353;28;20423;-71
2024/01/31 02:35:51;;;;;;;1.05;0.65;;;5.30;99.90;;;;;;5075225;28;20040;-72
2024/01/31 02:38:17;;;;;;;0.75;0.70;;;5.00;99.90;;;;;;5075228;28;20047;-72
2024/01/31 02:40:43;;;;;;;1.08;0.80;;;5.10;99.90;;;;;;5074887;28;20132;-74
2024/01/31 02:43:08;;;;;;;0.80;0.70;;;5.00;99.90;;;;;;5074913;28;20140;-72
2024/01/31 02:45:35;;;;;;;0.85;0.70;;;5.00;99.90;;;;;;5073624;28;20047;-72
2024/01/31 02:48:02;;;;;;;0.98;0.85;;;5.30;99.90;;;;;;5075062;28;20476;-72
2024/01/31 02:50:30;;;;;;;1.40;0.70;;;4.90;99.90;;;;;;5074621;28;20041;-72
2024/01/31 02:52:56;;;;;;;1.23;0.75;;;4.90;99.90;;;;;;5074722;28;20399;-72
2024/01/31 02:55:21;;;;;;;1.65;0.73;;;4.90;99.90;;;;;;5074999;28;20086;-58
2024/01/31 02:57:47;;;;;;;1.95;1.00;;;5.70;99.90;;;;;;5074884;28;20383;-58
2024/01/31 03:00:14;;;;;;;1.95;0.88;;;4.80;99.90;;;;;;5073198;28;20033;-59
2024/01/31 03:02:42;;;;;;;0.70;0.70;;;4.80;99.90;;;;;;5074695;28;20071;-59
2024/01/31 03:05:08;;;;;;;2.25;0.90;;;4.80;99.90;;;;;;5074738;28;20506;-58
2024/01/31 03:07:34;;;;;;;0.85;0.70;;;4.80;99.90;;;;;;5074483;28;20048;-60
2024/01/31 03:09:59;;;;;;;2.05;1.00;;;4.70;99.90;;;;;;5074148;28;20115;-58
2024/01/31 03:12:25;;;;;;;1.00;0.90;;;4.70;99.90;;;;;;5074126;28;20032;-58
2024/01/31 03:14:50;;;;;;;0.63;0.60;;;5.50;99.90;;;;;;5074497;28;20426;-58
2024/01/31 03:17:16;;;;;;;1.38;0.77;;;4.60;99.90;;;;;;5074300;28;20089;-58
2024/01/31 03:19:42;;;;;;;2.13;0.90;;;4.80;99.90;;;;;;5074421;28;20043;-58
2024/01/31 03:22:09;;;;;;;2.83;0.90;;;5.50;99.90;;;;;;5074429;28;20045;-58
2024/01/31 03:24:35;;;;;;;0.75;0.75;;;5.00;99.90;;;;;;5074440;28;20071;-72
2024/01/31 03:27:02;;;;;;;0.50;0.50;;;4.50;99.90;;;;;;5073049;28;20055;-72
2024/01/31 03:29:28;;;;;;;1.13;0.70;;;4.50;99.90;;;;;;5074026;28;20549;-72
2024/01/31 03:31:54;;;;;;;0.60;0.60;;;4.50;99.90;;;;;;5074433;28;20040;-72
2024/01/31 03:34:33;;;;;;;1.17;0.68;;;4.50;99.90;;;;;;5094365;28;20055;-72
2024/01/31 03:37:02;;;;;;;1.25;0.95;;;4.50;99.90;;;;;;5094289;28;20128;-69
2024/01/31 03:39:28;;;;;;;0.73;0.70;;;4.50;99.90;;;;;;5094039;28;20085;-72
2024/01/31 03:41:53;;;;;;;1.73;0.80;;;4.50;99.90;;;;;;5094511;28;20052;-72
2024/01/31 03:44:20;;;;;;;1.25;0.70;;;4.60;99.90;;;;;;5075767;28;20040;-71
2024/01/31 03:46:45;;;;;;;0.90;0.70;;;4.80;99.90;;;;;;5094088;28;20040;-71
2024/01/31 03:49:11;;;;;;;1.10;0.75;;;4.40;99.90;;;;;;5093795;28;20040;-71
2024/01/31 03:51:37;;;;;;;2.25;1.17;;;4.30;99.90;;;;;;5093656;28;20038;-70
2024/01/31 03:54:03;;;;;;;0.88;0.65;;;4.70;99.90;;;;;;5093928;28;20079;-72
2024/01/31 03:56:29;;;;;;;1.25;1.00;;;4.30;99.90;;;;;;5093903;28;20044;-71
2024/01/31 03:58:54;;;;;;;2.05;0.75;;;5.10;99.90;;;;;;5093652;28;20058;-71
2024/01/31 04:01:20;;;;;;;0.82;0.70;;;4.90;99.90;;;;;;5093836;28;20040;-72
2024/01/31 04:03:46;;;;;;;2.00;1.02;;;4.20;99.90;;;;;;5093826;28;20475;-71
2024/01/31 04:06:12;;;;;;;2.15;0.80;;;4.20;99.90;;;;;;5075392;28;20055;-58
2024/01/31 04:08:38;;;;;;;1.40;0.70;;;4.20;99.90;;;;;;5093760;28;20142;-60
2024/01/31 04:11:04;;;;;;;0.60;0.60;;;4.20;99.90;;;;;;5093927;28;20123;-58
2024/01/31 04:13:30;;;;;;;1.75;0.80;;;4.20;99.90;;;;;;5093272;28;20040;-58
2024/01/31 04:15:57;;;;;;;1.27;0.75;;;4.20;99.90;;;;;;5093618;28;20086;-58
2024/01/31 04:18:23;;;;;;;0.80;0.80;;;4.20;99.90;;;;;;5093496;28;20119;-58
2024/01/31 04:20:50;;;;;;;0.90;0.65;;;4.00;99.90;;;;;;5093410;28;20154;-58
2024/01/31 04:23:16;;;;;;;1.02;0.93;;;4.00;99.90;;;;;;5093354;28;20039;-57
2024/01/31 04:25:41;;;;;;;0.60;0.60;;;4.20;99.90;;;;;;5093117;28;20044;-58
2024/01/31 04:28:07;;;;;;;1.77;1.00;;;3.90;99.90;;;;;;5074914;28;20403;-58
2024/01/31 04:30:33;;;;;;;0.75;0.68;;;3.90;99.90;;;;;;5093236;28;20546;-58
2024/01/31 04:33:08;;;;;;;0.90;0.60;;;3.90;99.90;;;;;;5091856;28;20067;-59
2024/01/31 04:35:34;;;;;;;0.88;0.68;;;4.00;99.90;;;;;;5074924;28;20093;-62
2024/01/31 04:38:00;;;;;;;1.63;0.70;;;3.70;99.90;;;;;;5093180;28;20039;-62
2024/01/31 04:40:26;;;;;;;0.50;0.50;;;4.40;99.90;;;;;;5093085;28;20123;-62
2024/01/31 04:42:51;;;;;;;1.27;0.90;;;3.70;99.90;;;;;;5092794;28;20040;-62
2024/01/31 04:45:17;;;;;;;1.13;0.90;;;3.70;99.90;;;;;;5093045;28;20043;-62
2024/01/31 04:47:43;;;;;;;0.50;0.50;;;3.60;99.90;;;;;;5093044;28;20467;-62
2024/01/31 04:50:09;;;;;;;0.80;0.60;;;3.80;99.90;;;;;;5092870;28;20047;-62
2024/01/31 04:52:35;;;;;;;1.58;0.73;;;3.50;99.90;;;;;;5074717;28;20119;-62
2024/01/31 04:55:01;;;;;;;0.60;0.60;;;3.50;99.90;;;;;;5092852;28;20032;-62
2024/01/31 04:57:27;;;;;;;0.55;0.52;;;3.40;99.90;;;;;;5074381;28;20489;-62
2024/01/31 04:59:53;;;;;;;0.88;0.70;;;3.40;99.90;;;;;;5092777;28;20463;-62
2024/01/31 05:02:18;;;;;;;0.60;0.60;;;3.40;99.90;;;;;;5092700;28;20048;-62
2024/01/31 05:04:44;;;;;;;0.75;0.75;;;3.40;99.90;;;;;;5092743;28;20115;-62
2024/01/31 05:07:09;;;;;;;0.80;0.70;;;3.40;99.90;;;;;;5092422;28;20457;-62
2024/01/31 05:09:35;;;;;;;0.80;0.80;;;3.40;99.90;;;;;;5092661;28;20071;-62
2024/01/31 05:12:01;;;;;;;0.60;0.60;;;3.40;99.90;;;;;;5092534;28;20047;-62
2024/01/31 05:14:26;;;;;;;0.98;0.80;;;3.40;99.90;;;;;;5092582;28;20501;-62
2024/01/31 05:16:52;;;;;;;0.60;0.60;;;3.40;99.90;;;;;;5092394;28;20040;-58
2024/01/31 05:19:17;;;;;;;0.85;0.80;;;4.00;99.90;;;;;;5092485;28;20119;-59
2024/01/31 05:21:52;;;;;;;0.65;0.60;;;3.90;99.90;;;;;;5092488;28;20171;-58
2024/01/31 05:24:18;;;;;;;0.60;0.60;;;3.70;99.90;;;;;;5092118;28;20043;-58
2024/01/31 05:26:45;;;;;;;1.15;0.70;;;3.30;99.90;;;;;;5092427;28;20047;-60
2024/01/31 05:29:11;;;;;;;0.50;0.50;;;3.40;99.90;;;;;;5092352;28;20034;-58
2024/01/31 05:31:36;;;;;;;0.70;0.70;;;3.30;99.90;;;;;;5092240;28;20036;-58
2024/01/31 05:34:02;;;;;;;0.90;0.80;;;3.90;99.90;;;;;;5090184;28;20500;-59
2024/01/31 05:36:34;;;;;;;1.15;0.73;;;3.20;99.90;;;;;;5092361;28;20059;-57
2024/01/31 05:39:00;;;;;;;0.85;0.80;;;3.20;99.90;;;;;;5092240;28;20032;-58
2024/01/31 05:41:25;;;;;;;0.50;0.50;;;3.10;99.90;;;;;;5092229;28;20036;-59
2024/01/31 05:43:51;;;;;;;0.60;0.60;;;3.20;99.90;;;;;;5073873;28;20403;-58
2024/01/31 05:46:17;;;;;;;0.60;0.60;;;3.20;99.90;;;;;;5092328;28;20116;-71
2024/01/31 05:48:47;;;;;;;0.77;0.77;;;3.90;99.90;;;;;;5091876;28;20047;-71
2024/01/31 05:51:13;;;;;;;0.73;0.60;;;3.40;99.90;;;;;;5092086;28;20050;-71
2024/01/31 05:53:39;;;;;;;0.77;0.73;;;3.40;99.90;;;;;;5073709;28;20101;-70
2024/01/31 05:56:05;;;;;;;0.82;0.63;;;4.20;99.90;;;;;;5092147;28;20028;-72
2024/01/31 05:58:31;;;;;;;0.50;0.50;;;3.60;99.90;;;;;;5073690;28;20040;-71
2024/01/31 06:00:56;;;;;;;0.80;0.80;;;3.60;99.90;;;;;;5091716;28;20043;-71
2024/01/31 06:03:24;;;;;;;1.35;0.80;;;3.60;99.90;;;;;;5092073;28;20040;-71
2024/01/31 06:05:50;;;;;;;1.30;0.70;;;3.70;99.90;;;;;;5073539;28;20454;-71
2024/01/31 06:08:18;;;;;;;0.60;0.60;;;3.60;99.90;;;;;;5091959;28;20086;-71
2024/01/31 06:10:44;;;;;;;1.30;0.90;;;3.70;99.90;;;;;;5091906;28;20044;-72
2024/01/31 06:13:09;;;;;;;1.95;0.82;;;3.60;99.90;;;;;;5091821;28;20117;-70
2024/01/31 06:15:35;;;;;;;0.90;0.68;;;3.70;99.90;;;;;;5093039;28;20051;-75
2024/01/31 06:18:00;;;;;;;1.52;0.80;;;4.30;99.90;;;;;;5073736;28;20098;-72
2024/01/31 06:20:26;;;;;;;1.15;0.75;;;3.80;99.90;;;;;;5074145;28;20048;-70
2024/01/31 06:22:52;;;;;;;1.77;0.90;;;3.80;99.90;;;;;;5091921;28;20475;-72
2024/01/31 06:25:18;;;;;;;1.48;0.80;;;3.80;99.90;;;;;;5073447;28;20170;-71
2024/01/31 06:27:43;;;;;;;0.75;0.70;;;3.90;99.90;;;;;;5092197;28;20450;-61
2024/01/31 06:30:19;;;;;;;2.53;1.02;;;3.60;99.90;;;;;;5091665;28;20040;-62
2024/01/31 06:33:05;;;;;;;0.90;0.68;;;3.90;99.90;;;;;;5090270;28;20185;-61
2024/01/31 06:35:31;;;;;;;1.52;0.85;;;4.00;99.90;;;;;;5091586;28;20043;-61
2024/01/31 06:37:57;;;;;;;0.80;0.75;;;4.00;99.90;;;;;;5091605;28;20039;-61
2024/01/31 06:40:23;;;;;;;1.00;0.80;;;4.10;99.90;;;;;;5091686;28;20039;-62
2024/01/31 06:42:48;;;;;;;0.63;0.60;;;3.90;99.90;;;;;;5091624;28;20127;-65
2024/01/31 06:45:15;;;;;;;1.60;0.90;;;4.40;99.90;;;;;;5073150;28;20044;-62
2024/01/31 06:47:40;;;;;;;0.88;0.75;;;4.10;99.90;;;;;;5095120;28;20399;-61
2024/01/31 06:50:06;;;;;;;1.02;0.82;;;5.20;99.90;;;;;;5095105;28;20036;-62
2024/01/31 06:52:32;;;;;;;0.77;0.60;;;4.20;99.90;;;;;;5059960;28;20076;-62
2024/01/31 06:54:57;;;;;;;0.80;0.80;;;4.20;99.90;;;;;;5094897;28;20137;-62
2024/01/31 06:57:23;;;;;;;0.80;0.68;;;4.30;99.90;;;;;;5095066;28;20036;-63
2024/01/31 06:59:48;;;;;;;0.90;0.85;;;4.30;99.90;;;;;;5094642;28;20044;-61
2024/01/31 07:02:14;;;;;;;1.95;1.10;;;4.30;99.90;;;;;;5095046;28;20040;-69
2024/01/31 07:04:40;;;;;;;1.23;0.80;;;4.40;99.90;;;;;;5094710;28;20487;-70
2024/01/31 07:07:05;;;;;;;0.90;0.65;;;4.30;99.90;;;;;;5094944;28;20078;-69
2024/01/31 07:09:33;;;;;;;1.25;0.88;;;4.40;99.90;;;;;;5094748;28;20522;-70
2024/01/31 07:11:59;;;;;;;1.63;0.88;;;4.90;99.90;;;;;;5094723;28;20032;-69
2024/01/31 07:14:25;;;;;;;0.60;0.60;;;4.40;99.90;;;;;;5094750;28;20068;-69
2024/01/31 07:16:50;;;;;;;0.90;0.63;;;4.20;99.90;;;;;;5094812;28;20070;-61
2024/01/31 07:19:16;;;;;;;0.70;0.70;;;4.20;99.90;;;;;;5094411;28;20035;-61
2024/01/31 07:21:42;;;;;;;0.70;0.70;;;4.40;99.90;;;;;;5094389;28;20051;-61
2024/01/31 07:24:07;;;;;;;0.90;0.70;;;4.50;99.90;;;;;;5094295;28;20040;-61
2024/01/31 07:26:33;;;;;;;0.93;0.70;;;4.50;99.90;;;;;;5094584;28;20126;-61
2024/01/31 07:28:59;;;;;;;1.27;0.80;;;4.50;99.90;;;;;;5076076;28;20048;-61
2024/01/31 07:31:25;;;;;;;1.25;1.00;;;4.60;99.90;;;;;;5094323;28;20051;-61
2024/01/31 07:33:50;;;;;;;2.55;0.98;;;4.60;99.90;;;;;;5092777;28;20048;-61
2024/01/31 07:36:30;;;;;;;1.60;0.93;;;4.60;99.90;;;;;;5094363;28;20047;-61
2024/01/31 07:38:55;;;;;;;1.08;0.80;;;4.70;99.90;;;;;;5094357;28;20035;-61
2024/01/31 07:41:21;;;;;;;0.70;0.70;;;5.50;99.90;;;;;;5094294;28;20084;-60
2024/01/31 07:43:47;;;;;;;2.28;1.02;;;4.60;99.90;;;;;;5094262;28;20032;-63
2024/01/31 07:46:12;;;;;;;1.75;1.15;;;4.70;99.90;;;;;;5093942;28;20032;-60
2024/01/31 07:48:38;;;;;;;1.52;1.10;;;4.70;99.90;;;;;;5094198;28;20519;-61
2024/01/31 07:51:05;;;;;;;1.13;0.70;;;4.70;99.90;;;;;;5094069;28;20399;-61
2024/01/31 07:53:32;;;;;;;0.93;0.82;;;4.70;99.90;;;;;;5094051;28;20430;-60
2024/01/31 07:55:57;;;;;;;1.42;0.80;;;4.70;99.90;;;;;;5093895;28;20047;-61
2024/01/31 07:58:23;;;;;;;0.70;0.70;;;4.70;99.90;;;;;;5093785;28;20539;-61
2024/01/31 08:00:49;;;;;;;1.88;0.88;;;4.50;99.90;;;;;;5093866;28;20445;-61
2024/01/31 08:03:14;;;;;;;1.02;0.82;;;5.50;99.90;;;;;;5093596;28;20075;-61
2024/01/31 08:05:40;;;;;;;1.10;0.70;;;4.70;99.90;;;;;;5075274;28;20075;-63
2024/01/31 08:08:06;;;;;;;1.85;1.02;;;4.80;99.90;;;;;;5075272;28;20747;-61
2024/01/31 08:10:32;;;;;;;0.70;0.70;;;4.80;99.90;;;;;;5093563;28;20043;-61
2024/01/31 08:12:57;;;;;;;1.38;0.70;;;4.80;99.90;;;;;;5093667;28;20065;-61
2024/01/31 08:15:24;;;;;;;0.93;0.70;;;5.30;99.90;;;;;;5093626;28;20069;-61
2024/01/31 08:17:50;;;;;;;1.13;0.73;;;4.90;99.90;;;;;;5093691;28;20050;-59
2024/01/31 08:20:16;;;;;;;0.60;0.60;;;5.00;99.90;;;;;;5075305;28;20036;-58
2024/01/31 08:22:41;;;;;;;1.33;0.80;;;4.80;99.90;;;;;;5093503;28;20032;-58
2024/01/31 08:25:08;;;;;;;1.20;0.90;;;4.90;99.90;;;;;;5093439;28;20032;-58
2024/01/31 08:27:34;;;;;;;0.65;0.65;;;4.90;99.90;;;;;;5093572;28;20384;-69
2024/01/31 08:29:59;;;;;;;1.48;0.85;;;4.60;99.90;;;;;;5093282;28;20089;-69
2024/01/31 08:32:34;;;;;;;1.35;0.90;;;5.00;99.90;;;;;;5073339;28;20491;-69
2024/01/31 08:35:13;;;;;;;0.80;0.80;;;5.00;99.90;;;;;;5093231;28;20048;-70
2024/01/31 08:37:39;;;;;;;0.70;0.70;;;5.00;99.90;;;;;;5074784;28;20047;-70
2024/01/31 08:40:07;;;;;;;0.93;0.82;;;5.00;99.90;;;;;;5074734;28;20376;-70
2024/01/31 08:42:33;;;;;;;1.63;1.00;;;5.00;99.90;;;;;;5093086;28;20040;-70
2024/01/31 08:44:59;;;;;;;1.05;0.95;;;5.10;99.90;;;;;;5093122;28;20131;-69
2024/01/31 08:47:24;;;;;;;1.52;0.88;;;5.10;99.90;;;;;;5093065;28;20039;-70
2024/01/31 08:49:50;;;;;;;0.73;0.73;;;5.70;99.90;;;;;;5092929;28;20533;-70
2024/01/31 08:52:16;;;;;;;1.02;0.93;;;5.10;99.90;;;;;;5092903;28;20036;-70
2024/01/31 08:54:41;;;;;;;1.27;0.95;;;5.10;99.90;;;;;;5092563;28;20107;-70
2024/01/31 08:57:07;;;;;;;1.23;0.90;;;5.20;99.90;;;;;;5092588;28;20040;-70
2024/01/31 08:59:33;;;;;;;1.38;1.00;;;5.00;99.90;;;;;;5092519;28;20046;-70
2024/01/31 09:01:58;;;;;;;1.05;0.80;;;5.30;99.90;;;;;;5057577;28;20525;-70
2024/01/31 09:04:24;;;;;;;1.65;1.17;;;5.30;99.90;;;;;;5092749;28;20046;-71
2024/01/31 09:06:50;;;;;;;2.22;1.23;;;5.30;99.90;;;;;;5092799;28;20036;-70
2024/01/31 09:09:15;;;;;;;0.82;0.82;;;5.30;99.90;;;;;;5091798;28;20032;-71
2024/01/31 09:11:41;;;;;;;1.67;0.93;;;5.40;99.90;;;;;;5092523;28;20472;-72
2024/01/31 09:14:07;;;;;;;1.63;1.23;;;5.40;99.90;;;;;;5092483;28;20093;-70
2024/01/31 09:16:34;;;;;;;0.70;0.70;;;6.20;99.90;;;;;;5092510;28;20040;-70
2024/01/31 09:19:00;;;;;;;0.85;0.85;;;5.50;99.90;;;;;;5092440;28;20051;-70
2024/01/31 09:21:27;;;;;;;1.10;1.00;;;5.50;99.90;;;;;;5074348;28;20118;-70
2024/01/31 09:23:53;;;;;;;1.30;0.82;;;5.90;99.90;;;;;;5074015;28;20044;-70
2024/01/31 09:26:19;;;;;;;1.23;1.00;;;5.60;99.90;;;;;;5074291;28;20496;-60
2024/01/31 09:28:45;;;;;;;0.88;0.88;;;6.40;99.90;;;;;;5092036;28;20043;-62
2024/01/31 09:31:10;;;;;;;0.98;0.98;;;5.70;99.90;;;;;;5073841;28;20137;-62
2024/01/31 09:33:42;;;;;;;1.13;1.02;;;5.70;99.90;;;;;;5090635;28;20105;-63
2024/01/31 09:36:08;;;;;;;1.30;1.10;;;5.70;99.90;;;;;;5092236;28;20048;-62
2024/01/31 09:38:33;;;;;;;1.52;1.20;;;5.80;99.90;;;;;;5092335;28;20043;-61
2024/01/31 09:40:59;;;;;;;1.30;1.20;;;5.80;99.90;;;;;;5091906;28;20110;-62
2024/01/31 09:43:25;;;;;;;1.40;1.20;;;5.90;99.90;;;;;;5091943;28;20044;-62
2024/01/31 09:45:53;;;;;;;2.05;1.27;;;5.90;99.90;;;;;;5092180;28;20040;-62
2024/01/31 09:48:19;;;;;;;1.10;1.08;;;6.00;99.90;;;;;;5092191;28;20051;-61
2024/01/31 09:50:46;;;;;;;2.20;1.27;;;5.90;99.90;;;;;;5091836;28;20040;-61
2024/01/31 09:53:13;;;;;;;1.30;1.05;;;6.10;99.90;;;;;;5092153;28;20399;-61
2024/01/31 09:55:41;;;;;;;1.00;1.00;;;6.10;99.90;;;;;;5092048;28;20048;-62
2024/01/31 09:58:06;;;;;;;2.22;1.40;;;6.10;99.90;;;;;;5092095;28;20044;-62
2024/01/31 10:00:33;;;;;;;1.63;1.50;;;6.20;99.90;;;;;;5091644;28;20456;-61
2024/01/31 10:02:59;;;;;;;1.30;1.20;;;6.20;99.90;;;;;;5091731;28;20051;-61
2024/01/31 10:05:25;;;;;;;2.58;1.60;;;6.30;99.90;;;;;;5073607;28;20549;-61
2024/01/31 10:08:00;;;;;;;1.45;1.35;;;6.30;99.90;;;;;;5091711;28;20089;-61
2024/01/31 10:10:27;;;;;;;1.27;1.00;;;6.20;99.90;;;;;;5073553;28;20123;-61
2024/01/31 10:12:53;;;;;;;1.17;1.08;;;6.30;99.90;;;;;;5091749;28;20044;-61
2024/01/31 10:15:19;;;;;;;1.95;1.20;;;6.40;99.90;;;;;;5091635;28;20066;-62
2024/01/31 10:17:44;;;;;;;1.30;1.05;;;6.30;99.90;;;;;;5091978;28;20068;-62
2024/01/31 10:20:12;;;;;;;1.20;1.10;;;6.40;99.90;;;;;;5092911;28;20039;-61
2024/01/31 10:22:38;;;;;;;1.30;1.20;;;6.40;99.90;;;;;;5095836;28;20044;-61
2024/01/31 10:25:05;;;;;;;1.30;1.20;;;6.30;99.90;;;;;;5095722;28;20055;-62
2024/01/31 10:27:35;;;;;;;1.30;1.20;;;6.50;99.90;;;;;;5095394;28;20040;-61
2024/01/31 10:30:07;;;;;;;1.65;1.20;;;6.40;99.90;;;;;;5077186;28;20043;-61
2024/01/31 10:32:34;;;;;;;2.25;1.40;;;6.70;99.90;;;;;;5076898;28;20047;-61
2024/01/31 10:35:15;;;;;;;1.23;1.13;;;6.50;99.90;;;;;;5095504;28;20187;-61
2024/01/31 10:37:41;;;;;;;1.20;1.10;;;6.50;99.90;;;;;;5077309;28;20051;-71
2024/01/31 10:40:14;;;;;;;1.08;0.95;;;6.50;99.90;;;;;;5076910;28;20120;-70
2024/01/31 10:42:42;;;;;;;1.35;1.20;;;6.50;99.90;;;;;;5095368;28;20077;-71
2024/01/31 10:45:09;;;;;;;0.90;0.90;;;6.60;99.90;;;;;;5095332;28;20032;-71
2024/01/31 10:47:35;;;;;;;1.50;1.20;;;6.60;99.90;;;;;;5095429;28;20040;-61
2024/01/31 10:50:01;;;;;;;1.10;1.00;;;6.50;99.90;;;;;;5095258;28;20085;-61
2024/01/31 10:52:32;;;;;;;1.08;1.08;;;6.60;99.90;;;;;;5094835;28;20040;-62
2024/01/31 10:55:01;;;;;;;0.90;0.90;;;6.90;99.90;;;;;;5095170;28;20040;-61
2024/01/31 10:57:27;;;;;;;1.10;1.10;;;6.60;99.90;;;;;;5095120;28;20046;-62
2024/01/31 10:59:56;;;;;;;1.20;1.10;;;6.60;99.90;;;;;;5076709;28;20076;-61
2024/01/31 11:02:31;;;;;;;1.13;1.13;;;6.60;99.90;;;;;;5095061;28;20043;-61
2024/01/31 11:05:00;;;;;;;1.67;1.40;;;6.60;99.90;;;;;;5094970;28;20050;-62
2024/01/31 11:07:26;;;;;;;1.33;1.20;;;6.60;99.90;;;;;;5095011;28;20082;-61
2024/01/31 11:09:53;;;;;;;1.05;1.02;;;6.60;99.90;;;;;;5094933;28;20487;-61
2024/01/31 11:12:19;;;;;;;1.00;0.90;;;7.40;99.90;;;;;;5094733;28;20484;-62
2024/01/31 11:14:47;;;;;;;1.05;1.00;;;6.60;99.90;;;;;;5094485;28;20061;-61
2024/01/31 11:17:22;;;;;;;1.20;1.10;;;6.60;99.90;;;;;;5094798;28;20043;-61
2024/01/31 11:19:55;;;;;;;1.30;1.20;;;6.70;99.90;;;;;;5094705;28;20028;-61
2024/01/31 11:22:21;;;;;;;1.30;1.20;;;6.70;99.90;;;;;;5094281;28;20115;-61
2024/01/31 11:24:48;;;;;;;1.20;1.10;;;6.80;99.90;;;;;;5094486;28;20119;-62
2024/01/31 11:27:15;;;;;;;1.08;1.08;;;6.70;99.90;;;;;;5094498;28;20411;-62
2024/01/31 11:29:43;;;;;;;1.42;1.30;;;7.20;99.90;;;;;;5094497;28;20040;-61
2024/01/31 11:32:09;;;;;;;1.05;1.05;;;7.60;99.90;;;;;;5093510;28;20098;-62
2024/01/31 11:34:42;;;;;;;1.45;1.35;;;6.80;99.90;;;;;;5092860;28;20052;-61
2024/01/31 11:37:08;;;;;;;1.30;1.20;;;6.80;99.90;;;;;;5094305;28;20044;-62
2024/01/31 11:39:34;;;;;;;1.40;1.25;;;6.80;99.90;;;;;;5094324;28;20032;-62
2024/01/31 11:42:00;;;;;;;1.30;1.20;;;6.80;99.90;;;;;;5094248;28;20032;-62
2024/01/31 11:44:26;;;;;;;1.25;1.15;;;6.80;99.90;;;;;;5093915;28;20046;-62
2024/01/31 11:46:52;;;;;;;1.45;1.35;;;6.80;99.90;;;;;;5094342;28;20054;-58
2024/01/31 11:49:18;;;;;;;1.25;1.15;;;7.00;99.90;;;;;;5076218;28;20032;-58
2024/01/31 11:51:44;;;;;;;1.40;1.30;;;6.80;99.90;;;;;;5093584;28;20135;-60
2024/01/31 11:54:10;;;;;;;1.92;1.20;;;7.00;99.90;;;;;;5058705;28;20167;-57
2024/01/31 11:56:36;;;;;;;1.33;1.23;;;7.40;99.90;;;;;;5093993;28;20028;-71
2024/01/31 11:59:03;;;;;;;1.40;1.30;;;6.80;99.90;;;;;;5093913;28;20034;-72
2024/01/31 12:01:30;;;;;;;1.30;1.20;;;6.80;99.90;;;;;;5094047;28;20055;-71
2024/01/31 12:03:56;;;;;;;1.60;1.50;;;6.70;99.90;;;;;;5093777;28;20040;-71
2024/01/31 12:06:21;;;;;;;1.50;1.40;;;6.70;99.90;;;;;;5075400;28;20036;-71
2024/01/31 12:08:49;;;;;;;1.30;1.20;;;6.80;99.90;;;;;;5093439;28;20420;-71
2024/01/31 12:11:18;;;;;;;1.50;1.40;;;6.70;99.90;;;;;;5075238;28;20044;-70
2024/01/31 12:13:44;;;;;;;1.55;1.45;;;6.70;99.90;;;;;;5075509;28;20110;-71
2024/01/31 12:16:10;;;;;;;1.63;1.52;;;6.70;99.90;;;;;;5093556;28;20111;-71
2024/01/31 12:18:36;;;;;;;1.73;1.63;;;6.80;99.90;;;;;;5093542;28;20086;-71
2024/01/31 12:21:03;;;;;;;1.70;1.60;;;6.70;99.90;;;;;;5093492;28;20421;-71
2024/01/31 12:23:29;;;;;;;1.70;1.60;;;6.80;99.90;;;;;;5093079;28;20093;-71
2024/01/31 12:25:56;;;;;;;1.60;1.50;;;6.90;99.90;;;;;;5093377;28;20032;-71
2024/01/31 12:28:22;;;;;;;1.85;1.67;;;6.80;99.90;;;;;;5093241;28;20035;-70
2024/01/31 12:30:47;;;;;;;1.48;1.38;;;6.80;99.90;;;;;;5093227;28;20047;-71
2024/01/31 12:33:13;;;;;;;1.60;1.38;;;6.70;99.90;;;;;;5091825;28;20473;-71
2024/01/31 12:35:52;;;;;;;1.55;1.45;;;6.80;99.90;;;;;;5093024;28;20055;-71
2024/01/31 12:38:17;;;;;;;1.70;1.60;;;6.80;99.90;;;;;;5074656;28;20131;-70
2024/01/31 12:40:43;;;;;;;1.77;1.67;;;6.90;99.90;;;;;;5093178;28;20178;-71
2024/01/31 12:43:09;;;;;;;1.55;1.45;;;6.90;99.90;;;;;;5093024;28;20115;-70
2024/01/31 12:45:34;;;;;;;1.55;1.45;;;6.90;99.90;;;;;;5092750;28;20043;-71
2024/01/31 12:48:00;;;;;;;1.40;1.30;;;7.00;99.90;;;;;;5074512;28;20055;-71
2024/01/31 12:50:26;;;;;;;1.60;1.50;;;7.00;99.90;;;;;;5092487;28;20093;-70
2024/01/31 12:52:52;;;;;;;1.35;1.25;;;6.90;99.90;;;;;;5092492;28;20502;-72
2024/01/31 12:55:18;;;;;;;1.98;1.80;;;7.40;99.90;;;;;;5074537;28;20078;-71